createdAt,value
2019-02-03T00:00:16.053Z,91.13
2019-02-03T00:01:20.240Z,91.17
2019-02-03T00:02:24.333Z,91.17
2019-02-03T00:03:28.543Z,91.22
2019-02-03T00:04:32.693Z,91.25
2019-02-03T00:05:36.932Z,91.33
2019-02-03T00:06:40.981Z,91.37
2019-02-03T00:07:45.224Z,91.37
2019-02-03T00:08:49.332Z,91.33
2019-02-03T00:09:53.460Z,91.31
2019-02-03T00:10:57.715Z,91.33
2019-02-03T00:12:01.838Z,91.29
2019-02-03T00:13:06.061Z,91.22
2019-02-03T00:14:10.091Z,91.21
2019-02-03T00:15:14.357Z,91.15
2019-02-03T00:16:18.480Z,91.06
2019-02-03T00:17:22.671Z,90.95
2019-02-03T00:18:26.727Z,90.97
2019-02-03T00:19:31.022Z,91.03
2019-02-03T00:20:35.121Z,91.10
2019-02-03T00:21:39.323Z,91.17
2019-02-03T00:22:43.385Z,91.21
2019-02-03T00:23:47.598Z,91.24
2019-02-03T00:24:51.674Z,91.16
2019-02-03T00:25:55.975Z,91.17
2019-02-03T00:27:00.070Z,91.11
2019-02-03T00:28:04.248Z,91.08
2019-02-03T00:29:08.329Z,91.09
2019-02-03T00:30:12.578Z,91.11
2019-02-03T00:31:16.798Z,91.06
2019-02-03T00:32:20.951Z,91.06
2019-02-03T00:33:25.135Z,90.99
2019-02-03T00:34:29.196Z,91.00
2019-02-03T00:35:33.337Z,91.01
2019-02-03T00:36:37.488Z,90.91
2019-02-03T00:37:41.712Z,90.86
2019-02-03T00:38:45.825Z,90.88
2019-02-03T00:39:53.082Z,90.84
2019-02-03T00:40:56.220Z,90.82
2019-02-03T00:42:00.296Z,90.79
2019-02-03T00:43:04.534Z,90.82
2019-02-03T00:44:08.749Z,90.86
2019-02-03T00:45:12.918Z,90.89
2019-02-03T00:46:17.163Z,90.81
2019-02-03T00:47:21.203Z,90.83
2019-02-03T00:48:25.366Z,90.87
2019-02-03T00:49:29.633Z,90.87
2019-02-03T00:50:33.726Z,90.88
2019-02-03T00:51:37.898Z,90.88
2019-02-03T00:52:42.144Z,90.74
2019-02-03T00:53:46.259Z,90.71
2019-02-03T00:54:50.332Z,90.73
2019-02-03T00:55:54.551Z,90.72
2019-02-03T00:56:58.627Z,90.69
2019-02-03T00:58:02.764Z,90.71
2019-02-03T00:59:06.987Z,90.74
2019-02-03T01:00:11.072Z,90.75
2019-02-03T01:01:15.204Z,90.70
2019-02-03T01:02:19.465Z,90.67
2019-02-03T01:03:26.415Z,90.72
2019-02-03T01:04:27.743Z,90.71
2019-02-03T01:05:31.859Z,90.69
2019-02-03T01:06:36.084Z,90.60
2019-02-03T01:07:40.167Z,90.60
2019-02-03T01:08:44.307Z,90.64
2019-02-03T01:09:48.549Z,90.62
2019-02-03T01:10:52.756Z,90.59
2019-02-03T01:11:56.894Z,90.58
2019-02-03T01:13:01.053Z,90.65
2019-02-03T01:14:05.234Z,90.67
2019-02-03T01:15:09.322Z,90.78
2019-02-03T01:16:13.597Z,90.85
2019-02-03T01:17:17.780Z,90.93
2019-02-03T01:18:21.858Z,91.00
2019-02-03T01:19:26.081Z,91.07
2019-02-03T01:20:30.179Z,91.13
2019-02-03T01:21:34.441Z,91.19
2019-02-03T01:22:38.545Z,91.25
2019-02-03T01:23:42.671Z,91.32
2019-02-03T01:24:46.890Z,91.34
2019-02-03T01:25:50.961Z,91.34
2019-02-03T01:26:55.070Z,91.37
2019-02-03T01:27:59.321Z,91.40
2019-02-03T01:29:03.483Z,91.40
2019-02-03T01:30:07.538Z,91.39
2019-02-03T01:31:11.731Z,91.42
2019-02-03T01:32:15.915Z,91.40
2019-02-03T01:33:20.024Z,91.39
2019-02-03T01:34:24.212Z,91.42
2019-02-03T01:35:28.282Z,91.42
2019-02-03T01:36:32.465Z,91.42
2019-02-03T01:37:39.461Z,91.44
2019-02-03T01:38:40.872Z,91.47
2019-02-03T01:39:44.965Z,91.51
2019-02-03T01:40:49.228Z,91.51
2019-02-03T01:41:53.289Z,91.49
2019-02-03T01:42:57.449Z,91.52
2019-02-03T01:44:01.692Z,91.51
2019-02-03T01:45:05.762Z,91.47
2019-02-03T01:46:09.902Z,91.45
2019-02-03T01:47:14.157Z,91.50
2019-02-03T01:48:18.298Z,91.55
2019-02-03T01:49:22.398Z,91.58
2019-02-03T01:50:26.646Z,91.64
2019-02-03T01:51:30.740Z,91.71
2019-02-03T01:52:34.997Z,91.79
2019-02-03T01:53:39.214Z,91.77
2019-02-03T01:54:43.370Z,91.80
2019-02-03T01:55:47.529Z,91.83
2019-02-03T01:56:51.651Z,91.83
2019-02-03T01:57:55.759Z,91.82
2019-02-03T01:59:00.879Z,91.85
2019-02-03T02:00:04.691Z,91.85
2019-02-03T02:01:08.874Z,91.88
2019-02-03T02:02:13.034Z,91.88
2019-02-03T02:03:17.085Z,91.89
2019-02-03T02:04:21.200Z,91.90
2019-02-03T02:05:25.353Z,91.90
2019-02-03T02:06:29.590Z,91.90
2019-02-03T02:07:33.689Z,91.89
2019-02-03T02:08:37.974Z,91.89
2019-02-03T02:09:42.006Z,91.89
2019-02-03T02:10:46.128Z,91.90
2019-02-03T02:11:50.240Z,91.88
2019-02-03T02:12:54.454Z,91.89
2019-02-03T02:13:58.551Z,91.89
2019-02-03T02:15:02.762Z,91.89
2019-02-03T02:16:06.840Z,91.93
2019-02-03T02:17:11.069Z,91.94
2019-02-03T02:18:15.325Z,91.96
2019-02-03T02:19:19.346Z,92.00
2019-02-03T02:20:23.578Z,92.01
2019-02-03T02:21:27.742Z,92.02
2019-02-03T02:22:31.791Z,91.98
2019-02-03T02:23:36.054Z,92.08
2019-02-03T02:24:40.125Z,92.10
2019-02-03T02:25:44.241Z,92.11
2019-02-03T02:26:48.410Z,92.11
2019-02-03T02:27:52.630Z,92.09
2019-02-03T02:28:56.809Z,92.12
2019-02-03T02:30:00.941Z,92.13
2019-02-03T02:31:05.126Z,92.13
2019-02-03T02:32:09.249Z,92.11
2019-02-03T02:33:13.500Z,92.12
2019-02-03T02:34:17.601Z,92.09
2019-02-03T02:35:21.703Z,92.10
2019-02-03T02:36:25.823Z,92.10
2019-02-03T02:37:30.015Z,92.12
2019-02-03T02:38:34.092Z,92.13
2019-02-03T02:39:38.230Z,92.14
2019-02-03T02:40:42.438Z,92.12
2019-02-03T02:41:46.541Z,92.14
2019-02-03T02:42:50.708Z,92.14
2019-02-03T02:43:54.817Z,92.11
2019-02-03T02:44:59.030Z,92.14
2019-02-03T02:46:03.105Z,92.09
2019-02-03T02:47:07.238Z,92.08
2019-02-03T02:48:11.404Z,92.09
2019-02-03T02:49:15.568Z,92.03
2019-02-03T02:50:19.740Z,92.00
2019-02-03T02:51:23.833Z,91.98
2019-02-03T02:52:28.061Z,91.97
2019-02-03T02:53:32.274Z,91.96
2019-02-03T02:54:36.448Z,91.96
2019-02-03T02:55:40.585Z,91.98
2019-02-03T02:56:44.770Z,91.99
2019-02-03T02:57:48.855Z,92.00
2019-02-03T02:58:53.027Z,92.01
2019-02-03T02:59:57.368Z,91.99
2019-02-03T03:01:01.280Z,92.00
2019-02-03T03:02:05.493Z,92.00
2019-02-03T03:03:09.656Z,91.97
2019-02-03T03:04:13.728Z,92.00
2019-02-03T03:05:17.905Z,91.96
2019-02-03T03:06:22.043Z,91.96
2019-02-03T03:07:26.128Z,91.96
2019-02-03T03:08:30.228Z,92.00
2019-02-03T03:09:34.473Z,91.99
2019-02-03T03:10:38.684Z,92.00
2019-02-03T03:11:42.885Z,92.00
2019-02-03T03:12:48.018Z,91.98
2019-02-03T03:13:51.623Z,92.02
2019-02-03T03:14:55.805Z,92.03
2019-02-03T03:16:00.016Z,92.12
2019-02-03T03:17:04.086Z,92.08
2019-02-03T03:18:08.197Z,92.11
2019-02-03T03:19:12.449Z,92.12
2019-02-03T03:20:16.548Z,92.14
2019-02-03T03:21:20.782Z,92.03
2019-02-03T03:22:24.930Z,92.13
2019-02-03T03:23:29.024Z,92.12
2019-02-03T03:24:33.173Z,92.14
2019-02-03T03:25:37.449Z,92.16
2019-02-03T03:26:41.598Z,92.18
2019-02-03T03:27:45.722Z,92.22
2019-02-03T03:28:49.894Z,92.23
2019-02-03T03:29:54.047Z,92.23
2019-02-03T03:30:58.109Z,92.25
2019-02-03T03:32:02.216Z,92.25
2019-02-03T03:33:06.431Z,92.25
2019-02-03T03:34:10.633Z,92.20
2019-02-03T03:35:14.706Z,92.21
2019-02-03T03:36:18.893Z,92.21
2019-02-03T03:37:22.999Z,92.21
2019-02-03T03:38:32.273Z,92.22
2019-02-03T03:39:31.351Z,92.25
2019-02-03T03:40:35.564Z,92.29
2019-02-03T03:41:39.762Z,92.23
2019-02-03T03:42:43.936Z,92.25
2019-02-03T03:43:48.124Z,92.24
2019-02-03T03:44:52.173Z,92.18
2019-02-03T03:45:56.319Z,92.23
2019-02-03T03:47:00.483Z,92.21
2019-02-03T03:48:04.566Z,92.22
2019-02-03T03:49:08.793Z,92.21
2019-02-03T03:50:12.985Z,92.12
2019-02-03T03:51:17.035Z,92.20
2019-02-03T03:52:21.194Z,92.19
2019-02-03T03:53:25.325Z,92.17
2019-02-03T03:54:29.441Z,92.17
2019-02-03T03:55:33.708Z,92.14
2019-02-03T03:56:37.783Z,92.16
2019-02-03T03:57:41.860Z,92.18
2019-02-03T03:58:46.116Z,92.18
2019-02-03T03:59:50.281Z,92.21
2019-02-03T04:00:54.399Z,92.19
2019-02-03T04:01:58.528Z,92.19
2019-02-03T04:03:02.765Z,92.22
2019-02-03T04:04:06.869Z,92.22
2019-02-03T04:05:11.099Z,92.20
2019-02-03T04:06:15.159Z,92.19
2019-02-03T04:07:19.444Z,92.20
2019-02-03T04:08:23.617Z,92.16
2019-02-03T04:09:27.677Z,92.16
2019-02-03T04:10:31.805Z,92.16
2019-02-03T04:11:36.007Z,92.15
2019-02-03T04:12:40.099Z,92.16
2019-02-03T04:13:44.232Z,92.18
2019-02-03T04:14:48.345Z,92.17
2019-02-03T04:15:52.580Z,92.16
2019-02-03T04:16:56.613Z,92.16
2019-02-03T04:18:00.789Z,92.15
2019-02-03T04:19:05.157Z,92.15
2019-02-03T04:20:09.123Z,92.13
2019-02-03T04:21:13.208Z,92.13
2019-02-03T04:22:17.446Z,92.13
2019-02-03T04:23:21.637Z,92.12
2019-02-03T04:24:25.772Z,92.13
2019-02-03T04:25:29.979Z,92.15
2019-02-03T04:26:34.077Z,92.14
2019-02-03T04:27:38.198Z,92.11
2019-02-03T04:28:42.459Z,92.10
2019-02-03T04:29:46.638Z,92.07
2019-02-03T04:30:50.809Z,92.04
2019-02-03T04:31:55.008Z,92.05
2019-02-03T04:32:59.189Z,92.04
2019-02-03T04:34:03.362Z,92.05
2019-02-03T04:35:07.540Z,92.08
2019-02-03T04:36:11.720Z,92.00
2019-02-03T04:37:15.885Z,91.98
2019-02-03T04:38:20.141Z,91.98
2019-02-03T04:39:24.157Z,91.94
2019-02-03T04:40:28.381Z,91.97
2019-02-03T04:41:32.448Z,91.99
2019-02-03T04:42:36.584Z,92.00
2019-02-03T04:43:40.834Z,92.02
2019-02-03T04:44:44.887Z,92.00
2019-02-03T04:45:49.132Z,91.99
2019-02-03T04:46:53.280Z,92.01
2019-02-03T04:47:57.344Z,91.96
2019-02-03T04:49:01.463Z,91.93
2019-02-03T04:50:05.595Z,91.89
2019-02-03T04:51:09.800Z,91.92
2019-02-03T04:52:13.881Z,91.84
2019-02-03T04:53:18.052Z,91.81
2019-02-03T04:54:22.322Z,91.76
2019-02-03T04:55:26.508Z,91.76
2019-02-03T04:56:30.689Z,91.73
2019-02-03T04:57:34.865Z,91.69
2019-02-03T04:58:39.100Z,91.69
2019-02-03T04:59:43.278Z,91.75
2019-02-03T05:00:47.339Z,91.63
2019-02-03T05:01:51.632Z,91.59
2019-02-03T05:02:55.730Z,91.64
2019-02-03T05:03:59.906Z,91.60
2019-02-03T05:05:04.181Z,91.60
2019-02-03T05:06:08.254Z,91.59
2019-02-03T05:07:12.399Z,91.57
2019-02-03T05:08:16.660Z,91.53
2019-02-03T05:09:20.753Z,91.56
2019-02-03T05:10:24.933Z,91.62
2019-02-03T05:11:29.064Z,91.63
2019-02-03T05:12:33.175Z,91.52
2019-02-03T05:13:37.289Z,91.49
2019-02-03T05:14:41.545Z,91.49
2019-02-03T05:15:45.651Z,91.45
2019-02-03T05:16:49.783Z,91.42
2019-02-03T05:17:53.904Z,91.45
2019-02-03T05:18:58.044Z,91.50
2019-02-03T05:20:02.211Z,91.51
2019-02-03T05:21:06.326Z,91.53
2019-02-03T05:22:10.578Z,91.53
2019-02-03T05:23:14.730Z,91.50
2019-02-03T05:24:18.961Z,91.52
2019-02-03T05:25:22.986Z,91.51
2019-02-03T05:26:27.236Z,91.48
2019-02-03T05:27:31.444Z,91.43
2019-02-03T05:28:35.493Z,91.43
2019-02-03T05:29:39.745Z,91.40
2019-02-03T05:30:43.929Z,91.41
2019-02-03T05:31:48.153Z,91.41
2019-02-03T05:32:52.228Z,91.45
2019-02-03T05:33:56.457Z,91.53
2019-02-03T05:35:00.557Z,91.47
2019-02-03T05:36:04.778Z,91.45
2019-02-03T05:37:08.866Z,91.44
2019-02-03T05:38:13.091Z,91.45
2019-02-03T05:39:25.055Z,91.44
2019-02-03T05:40:21.417Z,91.42
2019-02-03T05:41:25.492Z,91.39
2019-02-03T05:42:29.652Z,91.35
2019-02-03T05:43:33.875Z,91.33
2019-02-03T05:44:38.072Z,91.33
2019-02-03T05:45:42.099Z,91.33
2019-02-03T05:46:46.352Z,91.32
2019-02-03T05:47:50.732Z,91.36
2019-02-03T05:48:54.715Z,91.36
2019-02-03T05:49:58.817Z,91.34
2019-02-03T05:51:03.032Z,91.30
2019-02-03T05:52:07.130Z,91.34
2019-02-03T05:53:11.391Z,91.34
2019-02-03T05:54:15.595Z,91.32
2019-02-03T05:55:19.851Z,91.40
2019-02-03T05:56:23.936Z,91.41
2019-02-03T05:57:28.080Z,91.38
2019-02-03T05:58:32.258Z,91.36
2019-02-03T05:59:36.374Z,91.35
2019-02-03T06:00:40.602Z,91.34
2019-02-03T06:01:44.772Z,91.25
2019-02-03T06:02:48.937Z,91.36
2019-02-03T06:03:53.102Z,91.35
2019-02-03T06:04:57.304Z,91.32
2019-02-03T06:06:01.373Z,91.29
2019-02-03T06:07:05.547Z,91.21
2019-02-03T06:08:09.643Z,91.18
2019-02-03T06:09:13.843Z,91.16
2019-02-03T06:10:18.080Z,91.21
2019-02-03T06:11:22.118Z,91.19
2019-02-03T06:12:26.360Z,91.15
2019-02-03T06:13:30.542Z,91.08
2019-02-03T06:14:34.788Z,91.08
2019-02-03T06:15:39.729Z,91.09
2019-02-03T06:16:43.476Z,91.08
2019-02-03T06:17:47.573Z,91.08
2019-02-03T06:18:51.839Z,91.13
2019-02-03T06:19:55.892Z,91.18
2019-02-03T06:21:00.064Z,91.18
2019-02-03T06:22:04.291Z,91.12
2019-02-03T06:23:08.363Z,91.11
2019-02-03T06:24:13.490Z,91.09
2019-02-03T06:25:17.199Z,91.15
2019-02-03T06:26:21.345Z,91.14
2019-02-03T06:27:25.517Z,91.16
2019-02-03T06:28:29.648Z,91.17
2019-02-03T06:29:33.791Z,91.20
2019-02-03T06:30:38.027Z,91.28
2019-02-03T06:31:42.210Z,91.34
2019-02-03T06:32:46.402Z,91.27
2019-02-03T06:33:50.454Z,91.25
2019-02-03T06:34:54.733Z,91.24
2019-02-03T06:35:58.830Z,91.18
2019-02-03T06:37:02.991Z,91.09
2019-02-03T06:38:07.153Z,91.05
2019-02-03T06:39:11.320Z,91.02
2019-02-03T06:40:15.500Z,91.00
2019-02-03T06:41:19.614Z,90.96
2019-02-03T06:42:23.745Z,90.96
2019-02-03T06:43:28.022Z,91.00
2019-02-03T06:44:32.063Z,90.97
2019-02-03T06:45:36.280Z,90.88
2019-02-03T06:46:40.486Z,90.88
2019-02-03T06:47:44.553Z,90.91
2019-02-03T06:48:48.660Z,90.95
2019-02-03T06:49:52.808Z,90.87
2019-02-03T06:50:57.061Z,90.81
2019-02-03T06:52:01.149Z,90.85
2019-02-03T06:53:05.354Z,90.86
2019-02-03T06:54:09.431Z,90.83
2019-02-03T06:55:13.563Z,90.75
2019-02-03T06:56:17.794Z,90.67
2019-02-03T06:57:21.870Z,90.69
2019-02-03T06:58:26.077Z,90.69
2019-02-03T06:59:30.155Z,90.73
2019-02-03T07:00:34.272Z,90.81
2019-02-03T07:01:38.536Z,90.89
2019-02-03T07:02:42.614Z,90.92
2019-02-03T07:03:46.867Z,90.97
2019-02-03T07:04:51.169Z,90.96
2019-02-03T07:05:55.220Z,90.96
2019-02-03T07:06:59.450Z,90.94
2019-02-03T07:08:03.603Z,90.94
2019-02-03T07:09:07.690Z,90.98
2019-02-03T07:10:11.829Z,90.96
2019-02-03T07:11:16.066Z,90.88
2019-02-03T07:12:20.262Z,90.88
2019-02-03T07:13:24.484Z,90.92
2019-02-03T07:14:28.612Z,90.94
2019-02-03T07:15:32.822Z,90.95
2019-02-03T07:16:41.735Z,90.95
2019-02-03T07:17:41.132Z,90.87
2019-02-03T07:18:45.197Z,90.92
2019-02-03T07:19:49.440Z,90.90
2019-02-03T07:20:53.527Z,90.93
2019-02-03T07:21:57.801Z,90.97
2019-02-03T07:23:01.897Z,90.95
2019-02-03T07:24:06.031Z,90.90
2019-02-03T07:25:10.164Z,90.92
2019-02-03T07:26:14.382Z,90.94
2019-02-03T07:27:18.451Z,90.96
2019-02-03T07:28:23.626Z,91.01
2019-02-03T07:29:27.464Z,91.03
2019-02-03T07:30:31.585Z,90.96
2019-02-03T07:31:35.815Z,90.91
2019-02-03T07:32:39.914Z,90.89
2019-02-03T07:33:44.049Z,90.85
2019-02-03T07:34:48.152Z,90.84
2019-02-03T07:35:52.353Z,90.82
2019-02-03T07:36:56.549Z,90.81
2019-02-03T07:38:00.598Z,90.87
2019-02-03T07:39:04.716Z,90.88
2019-02-03T07:40:12.556Z,90.91
2019-02-03T07:41:13.140Z,90.94
2019-02-03T07:42:17.178Z,90.94
2019-02-03T07:43:21.480Z,90.96
2019-02-03T07:44:25.553Z,90.97
2019-02-03T07:45:29.649Z,90.96
2019-02-03T07:46:33.756Z,90.99
2019-02-03T07:47:37.990Z,90.96
2019-02-03T07:48:42.215Z,90.95
2019-02-03T07:49:46.461Z,90.99
2019-02-03T07:50:50.568Z,91.01
2019-02-03T07:51:54.763Z,91.00
2019-02-03T07:52:58.859Z,91.02
2019-02-03T07:54:08.491Z,90.95
2019-02-03T07:55:07.126Z,90.87
2019-02-03T07:56:11.289Z,90.77
2019-02-03T07:57:15.462Z,90.91
2019-02-03T07:58:19.629Z,90.82
2019-02-03T07:59:23.834Z,90.83
2019-02-03T08:00:27.926Z,90.78
2019-02-03T08:01:32.076Z,90.72
2019-02-03T08:02:36.294Z,90.78
2019-02-03T08:03:40.501Z,90.78
2019-02-03T08:04:44.718Z,90.86
2019-02-03T08:05:48.740Z,90.85
2019-02-03T08:06:52.875Z,90.86
2019-02-03T08:07:57.050Z,90.86
2019-02-03T08:09:01.204Z,90.84
2019-02-03T08:10:05.434Z,90.81
2019-02-03T08:11:09.646Z,90.76
2019-02-03T08:12:13.725Z,90.78
2019-02-03T08:13:17.892Z,90.75
2019-02-03T08:14:22.136Z,90.78
2019-02-03T08:15:26.227Z,90.80
2019-02-03T08:16:30.490Z,90.80
2019-02-03T08:17:34.583Z,90.82
2019-02-03T08:18:38.768Z,90.78
2019-02-03T08:19:42.967Z,90.64
2019-02-03T08:20:47.151Z,90.63
2019-02-03T08:21:51.288Z,90.55
2019-02-03T08:22:55.459Z,90.57
2019-02-03T08:23:59.595Z,90.61
2019-02-03T08:25:03.709Z,90.58
2019-02-03T08:26:07.879Z,90.53
2019-02-03T08:27:12.091Z,90.53
2019-02-03T08:28:16.264Z,90.61
2019-02-03T08:29:20.490Z,90.65
2019-02-03T08:30:24.655Z,90.66
2019-02-03T08:31:28.774Z,90.65
2019-02-03T08:32:33.023Z,90.46
2019-02-03T08:33:37.208Z,90.50
2019-02-03T08:34:41.322Z,90.48
2019-02-03T08:35:45.447Z,90.45
2019-02-03T08:36:49.576Z,90.48
2019-02-03T08:37:53.807Z,90.48
2019-02-03T08:38:58.013Z,90.39
2019-02-03T08:40:02.130Z,90.41
2019-02-03T08:41:06.310Z,90.46
2019-02-03T08:42:10.445Z,90.46
2019-02-03T08:43:14.643Z,90.48
2019-02-03T08:44:18.731Z,90.46
2019-02-03T08:45:22.965Z,90.49
2019-02-03T08:46:27.143Z,90.48
2019-02-03T08:47:31.230Z,90.48
2019-02-03T08:48:35.384Z,90.45
2019-02-03T08:49:39.511Z,90.42
2019-02-03T08:50:43.697Z,90.44
2019-02-03T08:51:47.811Z,90.47
2019-02-03T08:52:52.039Z,90.48
2019-02-03T08:53:56.197Z,90.55
2019-02-03T08:55:00.262Z,90.60
2019-02-03T08:56:04.428Z,90.58
2019-02-03T08:57:08.655Z,90.56
2019-02-03T08:58:12.739Z,90.56
2019-02-03T08:59:16.883Z,90.48
2019-02-03T09:00:21.104Z,90.52
2019-02-03T09:01:25.345Z,90.59
2019-02-03T09:02:29.515Z,90.51
2019-02-03T09:03:33.591Z,90.53
2019-02-03T09:04:37.814Z,90.56
2019-02-03T09:05:41.944Z,90.46
2019-02-03T09:06:46.174Z,90.24
2019-02-03T09:07:50.371Z,90.22
2019-02-03T09:08:54.395Z,90.25
2019-02-03T09:09:58.612Z,90.24
2019-02-03T09:11:02.854Z,90.17
2019-02-03T09:12:07.061Z,90.15
2019-02-03T09:13:11.097Z,90.16
2019-02-03T09:14:15.316Z,90.13
2019-02-03T09:15:19.790Z,90.15
2019-02-03T09:16:23.616Z,90.21
2019-02-03T09:17:27.716Z,90.26
2019-02-03T09:18:34.932Z,90.24
2019-02-03T09:19:36.016Z,90.19
2019-02-03T09:20:40.101Z,90.22
2019-02-03T09:21:44.244Z,90.11
2019-02-03T09:22:48.432Z,90.06
2019-02-03T09:23:52.547Z,90.05
2019-02-03T09:24:56.670Z,90.02
2019-02-03T09:26:00.880Z,89.99
2019-02-03T09:27:04.973Z,89.93
2019-02-03T09:28:09.083Z,89.86
2019-02-03T09:29:13.330Z,89.88
2019-02-03T09:30:17.538Z,89.84
2019-02-03T09:31:21.600Z,89.85
2019-02-03T09:32:25.703Z,89.81
2019-02-03T09:33:29.952Z,89.88
2019-02-03T09:34:34.016Z,89.92
2019-02-03T09:35:38.160Z,89.97
2019-02-03T09:36:42.327Z,90.01
2019-02-03T09:37:46.564Z,90.00
2019-02-03T09:38:50.818Z,90.00
2019-02-03T09:39:54.819Z,89.97
2019-02-03T09:41:00.372Z,89.99
2019-02-03T09:42:03.271Z,90.00
2019-02-03T09:43:07.331Z,90.03
2019-02-03T09:44:11.487Z,90.03
2019-02-03T09:45:15.611Z,90.09
2019-02-03T09:46:19.850Z,90.15
2019-02-03T09:47:23.952Z,90.10
2019-02-03T09:48:28.066Z,90.12
2019-02-03T09:49:32.200Z,90.17
2019-02-03T09:50:36.348Z,90.13
2019-02-03T09:51:40.489Z,90.13
2019-02-03T09:52:44.640Z,90.04
2019-02-03T09:53:48.752Z,89.97
2019-02-03T09:54:52.884Z,89.98
2019-02-03T09:55:57.001Z,90.03
2019-02-03T09:57:01.245Z,89.97
2019-02-03T09:58:05.301Z,89.99
2019-02-03T09:59:09.443Z,89.96
2019-02-03T10:00:13.715Z,89.99
2019-02-03T10:01:17.912Z,89.97
2019-02-03T10:02:22.111Z,89.93
2019-02-03T10:03:26.189Z,89.90
2019-02-03T10:04:30.330Z,89.85
2019-02-03T10:05:37.139Z,89.88
2019-02-03T10:06:38.607Z,89.90
2019-02-03T10:07:42.721Z,89.91
2019-02-03T10:08:46.916Z,89.92
2019-02-03T10:09:51.007Z,89.96
2019-02-03T10:10:55.157Z,89.96
2019-02-03T10:11:59.373Z,90.02
2019-02-03T10:13:03.561Z,89.92
2019-02-03T10:14:07.729Z,89.90
2019-02-03T10:15:11.843Z,89.91
2019-02-03T10:16:15.956Z,89.91
2019-02-03T10:17:20.109Z,89.87
2019-02-03T10:18:24.405Z,89.93
2019-02-03T10:19:28.569Z,89.83
2019-02-03T10:20:32.630Z,89.77
2019-02-03T10:21:36.846Z,89.87
2019-02-03T10:22:41.042Z,89.86
2019-02-03T10:23:45.274Z,89.68
2019-02-03T10:24:49.445Z,89.65
2019-02-03T10:25:55.460Z,89.60
2019-02-03T10:26:57.787Z,89.54
2019-02-03T10:28:01.974Z,89.39
2019-02-03T10:29:06.170Z,89.47
2019-02-03T10:30:10.280Z,89.52
2019-02-03T10:31:14.409Z,89.44
2019-02-03T10:32:18.710Z,89.42
2019-02-03T10:33:22.831Z,89.46
2019-02-03T10:34:29.555Z,89.48
2019-02-03T10:35:31.283Z,89.52
2019-02-03T10:36:35.470Z,89.40
2019-02-03T10:37:39.648Z,89.41
2019-02-03T10:38:43.736Z,89.43
2019-02-03T10:39:47.836Z,89.40
2019-02-03T10:40:55.060Z,89.37
2019-02-03T10:41:58.289Z,89.40
2019-02-03T10:43:02.410Z,89.40
2019-02-03T10:44:06.545Z,89.37
2019-02-03T10:45:10.932Z,89.31
2019-02-03T10:46:15.123Z,89.23
2019-02-03T10:47:19.173Z,89.19
2019-02-03T10:48:23.367Z,89.12
2019-02-03T10:49:27.605Z,89.12
2019-02-03T10:50:31.674Z,89.15
2019-02-03T10:51:35.978Z,89.00
2019-02-03T10:52:40.163Z,88.96
2019-02-03T10:53:44.235Z,89.00
2019-02-03T10:54:48.529Z,88.93
2019-02-03T10:55:52.689Z,89.03
2019-02-03T10:56:56.889Z,89.07
2019-02-03T10:58:01.060Z,89.13
2019-02-03T10:59:05.158Z,89.21
2019-02-03T11:00:17.889Z,89.27
2019-02-03T11:01:13.582Z,89.17
2019-02-03T11:02:17.766Z,89.16
2019-02-03T11:03:21.940Z,89.03
2019-02-03T11:04:26.181Z,89.09
2019-02-03T11:05:30.385Z,89.11
2019-02-03T11:06:34.440Z,89.17
2019-02-03T11:07:38.661Z,89.09
2019-02-03T11:08:42.862Z,89.09
2019-02-03T11:09:47.143Z,88.97
2019-02-03T11:10:51.195Z,89.04
2019-02-03T11:11:55.343Z,89.13
2019-02-03T11:12:59.625Z,89.11
2019-02-03T11:14:03.695Z,89.06
2019-02-03T11:15:08.020Z,89.15
2019-02-03T11:16:12.176Z,89.08
2019-02-03T11:17:19.219Z,89.01
2019-02-03T11:18:22.464Z,89.03
2019-02-03T11:19:26.626Z,89.05
2019-02-03T11:20:30.707Z,89.05
2019-02-03T11:21:34.797Z,89.17
2019-02-03T11:22:38.946Z,89.09
2019-02-03T11:23:43.117Z,89.08
2019-02-03T11:24:47.232Z,89.17
2019-02-03T11:25:51.486Z,89.10
2019-02-03T11:26:55.669Z,89.11
2019-02-03T11:27:59.730Z,89.09
2019-02-03T11:29:03.894Z,89.13
2019-02-03T11:30:08.024Z,88.99
2019-02-03T11:31:12.171Z,89.04
2019-02-03T11:32:16.303Z,89.13
2019-02-03T11:33:20.450Z,89.26
2019-02-03T11:34:24.561Z,89.34
2019-02-03T11:35:28.818Z,89.35
2019-02-03T11:36:33.019Z,89.28
2019-02-03T11:37:37.086Z,89.24
2019-02-03T11:38:41.216Z,89.25
2019-02-03T11:39:45.350Z,89.28
2019-02-03T11:40:50.408Z,89.21
2019-02-03T11:41:54.236Z,88.98
2019-02-03T11:42:58.327Z,88.92
2019-02-03T11:44:03.330Z,88.98
2019-02-03T11:45:07.109Z,89.04
2019-02-03T11:46:11.317Z,88.95
2019-02-03T11:47:15.485Z,88.76
2019-02-03T11:48:19.684Z,88.68
2019-02-03T11:49:24.668Z,88.67
2019-02-03T11:50:28.410Z,88.78
2019-02-03T11:51:32.653Z,88.79
2019-02-03T11:52:36.805Z,88.81
2019-02-03T11:53:40.889Z,88.77
2019-02-03T11:54:45.142Z,88.64
2019-02-03T11:55:49.251Z,88.70
2019-02-03T11:56:53.488Z,88.83
2019-02-03T11:57:57.559Z,88.93
2019-02-03T11:59:01.795Z,89.02
2019-02-03T12:00:05.852Z,89.07
2019-02-03T12:01:10.020Z,88.96
2019-02-03T12:02:14.184Z,88.81
2019-02-03T12:03:18.285Z,88.68
2019-02-03T12:04:22.447Z,88.61
2019-02-03T12:05:26.548Z,88.63
2019-02-03T12:06:30.803Z,88.75
2019-02-03T12:07:34.989Z,88.75
2019-02-03T12:08:39.165Z,88.79
2019-02-03T12:09:43.256Z,88.83
2019-02-03T12:10:47.450Z,88.90
2019-02-03T12:12:00.799Z,88.90
2019-02-03T12:12:55.802Z,88.85
2019-02-03T12:14:00.032Z,88.82
2019-02-03T12:15:04.120Z,88.81
2019-02-03T12:16:08.413Z,88.72
2019-02-03T12:17:12.530Z,88.81
2019-02-03T12:18:16.605Z,88.81
2019-02-03T12:19:20.744Z,88.90
2019-02-03T12:20:24.972Z,88.78
2019-02-03T12:21:30.214Z,88.62
2019-02-03T12:22:33.186Z,88.46
2019-02-03T12:23:37.412Z,88.41
2019-02-03T12:24:41.620Z,88.30
2019-02-03T12:25:45.730Z,88.30
2019-02-03T12:26:49.905Z,88.43
2019-02-03T12:27:54.093Z,88.20
2019-02-03T12:28:58.259Z,88.17
2019-02-03T12:30:02.452Z,88.09
2019-02-03T12:31:06.540Z,88.12
2019-02-03T12:32:10.675Z,88.04
2019-02-03T12:33:14.860Z,88.01
2019-02-03T12:34:18.921Z,88.00
2019-02-03T12:35:23.146Z,87.88
2019-02-03T12:36:27.220Z,87.87
2019-02-03T12:37:32.259Z,87.80
2019-02-03T12:38:36.002Z,87.82
2019-02-03T12:39:40.127Z,87.95
2019-02-03T12:40:44.375Z,88.00
2019-02-03T12:41:48.541Z,88.00
2019-02-03T12:42:53.525Z,88.03
2019-02-03T12:43:57.340Z,87.97
2019-02-03T12:45:01.373Z,88.03
2019-02-03T12:46:06.377Z,87.97
2019-02-03T12:47:10.139Z,87.83
2019-02-03T12:48:15.151Z,87.86
2019-02-03T12:49:18.994Z,87.86
2019-02-03T12:50:23.049Z,87.92
2019-02-03T12:51:27.274Z,87.98
2019-02-03T12:52:31.339Z,87.96
2019-02-03T12:53:35.498Z,88.00
2019-02-03T12:54:39.716Z,87.99
2019-02-03T12:55:44.944Z,88.01
2019-02-03T12:56:48.008Z,87.83
2019-02-03T12:57:52.072Z,87.66
2019-02-03T12:58:56.319Z,87.60
2019-02-03T13:00:00.445Z,87.51
2019-02-03T13:01:04.631Z,87.69
2019-02-03T13:02:08.801Z,87.69
2019-02-03T13:03:12.931Z,87.59
2019-02-03T13:04:17.160Z,87.67
2019-02-03T13:05:21.330Z,87.60
2019-02-03T13:06:25.368Z,87.54
2019-02-03T13:07:29.497Z,87.53
2019-02-03T13:08:33.632Z,87.57
2019-02-03T13:09:37.773Z,87.68
2019-02-03T13:10:42.013Z,87.64
2019-02-03T13:11:46.113Z,87.61
2019-02-03T13:12:51.145Z,87.56
2019-02-03T13:13:55.795Z,87.46
2019-02-03T13:14:59.519Z,87.33
2019-02-03T13:16:03.715Z,87.21
2019-02-03T13:17:07.879Z,87.06
2019-02-03T13:18:11.977Z,87.09
2019-02-03T13:19:16.130Z,87.27
2019-02-03T13:20:20.279Z,87.24
2019-02-03T13:21:24.359Z,87.42
2019-02-03T13:22:28.451Z,87.46
2019-02-03T13:23:44.222Z,87.39
2019-02-03T13:24:36.670Z,87.44
2019-02-03T13:25:40.892Z,87.45
2019-02-03T13:26:45.039Z,87.59
2019-02-03T13:27:49.123Z,87.60
2019-02-03T13:28:53.298Z,87.38
2019-02-03T13:29:57.507Z,87.38
2019-02-03T13:31:01.670Z,87.40
2019-02-03T13:32:10.837Z,87.40
2019-02-03T13:33:09.959Z,87.45
2019-02-03T13:34:14.985Z,87.20
2019-02-03T13:35:18.815Z,87.11
2019-02-03T13:36:22.985Z,87.11
2019-02-03T13:37:27.166Z,86.98
2019-02-03T13:38:31.325Z,87.01
2019-02-03T13:39:35.390Z,87.12
2019-02-03T13:40:39.530Z,87.18
2019-02-03T13:41:43.733Z,87.17
2019-02-03T13:42:47.857Z,87.30
2019-02-03T13:43:52.057Z,87.39
2019-02-03T13:44:56.223Z,87.10
2019-02-03T13:46:01.210Z,87.14